ZUUU

Chengdu

Airport
ICAO code
ZUUU
Summary
ICAO Region
APAC
ICAO Territory
Location

Shuangliu County, Chengdu,

Coordinates
30° 34' 43" N , 103° 56' 49" E
KCC
Dwa
Metar
Observation
ZUUU 120200Z VRB01MPS CAVOK 34/24 Q1004 NOSIG
Station
Chengdu
Date/Time
2022-08-12 02:00:00
Lowest cloud amount
clouds and visibility OK
Temperature
34°C
Dew point
24°C
Humidity
56%
QNH
1004 hPa
Weather condition
n/a

Description

Chengdu Shuangliu International Airport is the major airport in Chengdu, China. It is located in the north of Shuangliu County, about 16 km southwest of downtown Chengdu.

Climatology

Warm continental climate/Humid continental climate (Köppen climate classification Dwa)

Airport map

Aerial View

SKYbrary Partners:

Safety knowledge contributed by: